createdAt,value
2023-10-29T00:02:13.130Z,5.18
2023-10-29T00:04:40.343Z,5.40
2023-10-29T00:07:08.041Z,5.30
2023-10-29T00:09:35.355Z,5.30
2023-10-29T00:12:02.277Z,5.13
2023-10-29T00:14:29.802Z,4.88
2023-10-29T00:16:57.906Z,4.90
2023-10-29T00:19:24.811Z,4.88
2023-10-29T00:21:51.757Z,4.72
2023-10-29T00:24:18.701Z,4.82
2023-10-29T00:26:45.712Z,4.85
2023-10-29T00:29:12.744Z,4.72
2023-10-29T00:31:39.691Z,4.72
2023-10-29T00:34:06.679Z,4.55
2023-10-29T00:36:33.626Z,5.10
2023-10-29T00:39:00.884Z,5.07
2023-10-29T00:41:27.969Z,5.30
2023-10-29T00:43:55.037Z,5.05
2023-10-29T00:46:22.181Z,5.13
2023-10-29T00:48:49.551Z,5.18
2023-10-29T00:51:16.683Z,5.80
2023-10-29T00:53:45.001Z,4.88
2023-10-29T00:56:15.164Z,6.82
2023-10-29T00:58:43.220Z,10.73
2023-10-29T01:01:10.209Z,10.43
2023-10-29T01:03:37.246Z,8.07
2023-10-29T01:06:04.953Z,9.05
2023-10-29T01:08:32.344Z,6.13
2023-10-29T01:10:59.280Z,5.50
2023-10-29T01:13:26.226Z,6.05
2023-10-29T01:15:53.497Z,5.63
2023-10-29T01:18:20.549Z,5.90
2023-10-29T01:20:47.680Z,5.65
2023-10-29T01:23:14.858Z,5.80
2023-10-29T01:25:42.982Z,5.00
2023-10-29T01:28:10.070Z,5.07
2023-10-29T01:30:36.982Z,5.07
2023-10-29T01:33:04.012Z,4.68
2023-10-29T01:35:31.087Z,4.82
2023-10-29T01:37:58.296Z,5.00
2023-10-29T01:40:25.248Z,5.30
2023-10-29T01:42:52.173Z,4.75
2023-10-29T01:45:19.158Z,5.40
2023-10-29T01:47:46.298Z,5.90
2023-10-29T01:50:14.644Z,5.40
2023-10-29T01:52:41.678Z,4.90
2023-10-29T01:55:08.822Z,4.57
2023-10-29T01:57:36.961Z,5.25
2023-10-29T02:00:07.516Z,5.38
2023-10-29T02:02:35.060Z,5.25
2023-10-29T02:05:05.894Z,5.20
2023-10-29T02:07:33.296Z,4.97
2023-10-29T02:10:00.324Z,4.80
2023-10-29T02:12:27.373Z,5.03
2023-10-29T02:14:54.305Z,5.07
2023-10-29T02:17:25.678Z,5.20
2023-10-29T02:19:53.152Z,5.30
2023-10-29T02:22:20.661Z,5.22
2023-10-29T02:24:47.822Z,4.90
2023-10-29T02:27:14.794Z,4.80
2023-10-29T02:29:41.828Z,5.30
2023-10-29T02:32:08.910Z,4.82
2023-10-29T02:34:35.834Z,4.90
2023-10-29T02:37:02.877Z,5.53
2023-10-29T02:39:29.782Z,5.53
2023-10-29T02:41:56.749Z,5.53
2023-10-29T02:44:23.763Z,5.60
2023-10-29T02:46:50.709Z,5.45
2023-10-29T02:49:17.622Z,5.68
2023-10-29T02:51:44.613Z,5.65
2023-10-29T02:54:11.619Z,5.72
2023-10-29T02:56:38.806Z,5.88
2023-10-29T02:59:05.922Z,5.80
2023-10-29T03:01:33.268Z,6.03
2023-10-29T03:04:00.462Z,5.95
2023-10-29T03:06:27.738Z,5.90
2023-10-29T03:08:54.720Z,6.45
2023-10-29T03:11:21.629Z,6.13
2023-10-29T03:13:48.560Z,6.18
2023-10-29T03:16:15.607Z,5.80
2023-10-29T03:18:42.533Z,5.90
2023-10-29T03:21:09.460Z,6.10
2023-10-29T03:23:36.461Z,6.53
2023-10-29T03:26:03.825Z,6.72
2023-10-29T03:28:31.304Z,6.63
2023-10-29T03:30:58.262Z,6.82
2023-10-29T03:33:25.305Z,6.70
2023-10-29T03:35:52.495Z,7.03
2023-10-29T03:38:19.740Z,6.60
2023-10-29T03:40:46.647Z,6.80
2023-10-29T03:43:13.730Z,7.28
2023-10-29T03:45:40.709Z,6.25
2023-10-29T03:48:07.806Z,7.10
2023-10-29T03:50:34.931Z,7.30
2023-10-29T03:53:01.858Z,7.70
2023-10-29T03:55:28.776Z,7.50
2023-10-29T03:57:55.702Z,7.22
2023-10-29T04:00:24.101Z,7.70
2023-10-29T04:02:51.193Z,7.90
2023-10-29T04:05:18.223Z,7.93
2023-10-29T04:07:45.181Z,7.95
2023-10-29T04:10:12.115Z,7.95
2023-10-29T04:12:39.297Z,7.70
2023-10-29T04:15:06.707Z,8.45
2023-10-29T04:17:34.236Z,8.07
2023-10-29T04:20:01.248Z,8.77
2023-10-29T04:22:28.395Z,8.85
2023-10-29T04:24:55.358Z,9.30
2023-10-29T04:27:22.629Z,8.00
2023-10-29T04:29:49.698Z,8.27
2023-10-29T04:32:16.724Z,8.20
2023-10-29T04:34:44.058Z,8.32
2023-10-29T04:37:11.053Z,7.97
2023-10-29T04:39:39.748Z,7.78
2023-10-29T04:42:06.991Z,7.93
2023-10-29T04:44:35.102Z,8.05
2023-10-29T04:47:05.119Z,7.80
2023-10-29T04:49:32.213Z,7.77
2023-10-29T04:51:59.166Z,7.47
2023-10-29T04:54:26.081Z,8.27
2023-10-29T04:56:53.077Z,7.90
2023-10-29T04:59:20.043Z,8.32
2023-10-29T05:01:47.058Z,7.80
2023-10-29T05:04:14.027Z,7.35
2023-10-29T05:06:40.978Z,7.50
2023-10-29T05:09:07.969Z,7.80
2023-10-29T05:11:36.964Z,7.90
2023-10-29T05:14:04.071Z,8.55
2023-10-29T05:16:31.277Z,7.35
2023-10-29T05:18:58.818Z,7.70
2023-10-29T05:21:25.707Z,6.95
2023-10-29T05:23:52.696Z,7.82
2023-10-29T05:26:21.694Z,7.85
2023-10-29T05:28:51.141Z,7.10
2023-10-29T05:31:18.193Z,7.47
2023-10-29T05:33:45.172Z,7.55
2023-10-29T05:36:12.142Z,7.10
2023-10-29T05:38:39.182Z,7.20
2023-10-29T05:41:06.505Z,6.97
2023-10-29T05:43:35.651Z,7.43
2023-10-29T05:46:02.655Z,7.30
2023-10-29T05:48:29.825Z,8.18
2023-10-29T05:50:56.825Z,7.75
2023-10-29T05:53:23.769Z,7.68
2023-10-29T05:55:52.124Z,8.13
2023-10-29T05:58:19.097Z,7.97
2023-10-29T06:00:46.405Z,8.13
2023-10-29T06:03:13.478Z,8.48
2023-10-29T06:05:40.607Z,8.18
2023-10-29T06:08:07.590Z,8.00
2023-10-29T06:10:34.754Z,8.27
2023-10-29T06:13:01.651Z,8.32
2023-10-29T06:15:28.633Z,8.80
2023-10-29T06:17:56.083Z,8.27
2023-10-29T06:20:23.607Z,8.80
2023-10-29T06:22:50.654Z,8.25
2023-10-29T06:25:18.091Z,8.43
2023-10-29T06:27:45.141Z,7.97
2023-10-29T06:30:12.556Z,8.38
2023-10-29T06:32:39.930Z,8.18
2023-10-29T06:35:07.490Z,9.07
2023-10-29T06:37:34.481Z,9.05
2023-10-29T06:40:02.044Z,8.65
2023-10-29T06:42:29.035Z,7.82
2023-10-29T06:44:56.040Z,8.27
2023-10-29T06:47:23.390Z,8.70
2023-10-29T06:49:52.081Z,9.00
2023-10-29T06:52:19.018Z,8.40
2023-10-29T06:54:46.144Z,7.88
2023-10-29T06:57:13.300Z,7.55
2023-10-29T06:59:40.711Z,7.82
2023-10-29T07:02:08.281Z,7.65
2023-10-29T07:04:35.357Z,7.57
2023-10-29T07:07:02.367Z,8.18
2023-10-29T07:09:29.332Z,7.70
2023-10-29T07:11:57.050Z,7.50
2023-10-29T07:14:24.145Z,7.90
2023-10-29T07:16:51.175Z,7.53
2023-10-29T07:19:18.297Z,7.30
2023-10-29T07:21:45.325Z,7.50
2023-10-29T07:24:12.600Z,8.63
2023-10-29T07:26:39.598Z,8.55
2023-10-29T07:29:07.136Z,7.95
2023-10-29T07:31:34.136Z,9.38
2023-10-29T07:34:01.177Z,8.55
2023-10-29T07:36:28.189Z,8.02
2023-10-29T07:38:55.216Z,7.97
2023-10-29T07:41:22.930Z,7.57
2023-10-29T07:43:51.000Z,8.20
2023-10-29T07:46:17.991Z,7.68
2023-10-29T07:48:45.026Z,8.18
2023-10-29T07:51:15.174Z,9.60
2023-10-29T07:53:42.841Z,9.48
2023-10-29T07:56:14.878Z,8.00
2023-10-29T07:58:42.110Z,8.43
2023-10-29T08:01:13.209Z,8.30
2023-10-29T08:03:41.553Z,8.38
2023-10-29T08:06:09.552Z,8.00
2023-10-29T08:08:38.509Z,7.95
2023-10-29T08:11:06.080Z,7.63
2023-10-29T08:13:33.040Z,7.88
2023-10-29T08:16:00.291Z,8.02
2023-10-29T08:18:27.354Z,8.18
2023-10-29T08:20:54.417Z,7.88
2023-10-29T08:23:21.394Z,8.77
2023-10-29T08:25:48.335Z,8.45
2023-10-29T08:28:15.290Z,8.57
2023-10-29T08:30:42.263Z,8.85
2023-10-29T08:33:09.323Z,8.55
2023-10-29T08:35:36.350Z,7.38
2023-10-29T08:38:03.987Z,7.97
2023-10-29T08:40:30.873Z,9.25
2023-10-29T08:42:57.813Z,8.85
2023-10-29T08:45:40.993Z,8.82
2023-10-29T08:48:09.440Z,8.88
2023-10-29T08:50:36.608Z,8.25
2023-10-29T08:53:03.595Z,8.02
2023-10-29T08:55:30.604Z,7.72
2023-10-29T08:57:58.206Z,8.20
2023-10-29T09:00:30.424Z,8.88
2023-10-29T09:03:02.512Z,7.68
2023-10-29T09:05:29.914Z,8.05
2023-10-29T09:07:56.852Z,6.88
2023-10-29T09:10:23.840Z,7.32
2023-10-29T09:12:50.875Z,7.07
2023-10-29T09:15:17.985Z,7.25
2023-10-29T09:17:45.191Z,7.35
2023-10-29T09:20:13.487Z,6.78
2023-10-29T09:22:41.959Z,7.30
2023-10-29T09:25:10.488Z,7.03
2023-10-29T09:27:37.808Z,6.32
2023-10-29T09:30:07.117Z,6.45
2023-10-29T09:32:35.745Z,6.63
2023-10-29T09:35:05.951Z,6.63
2023-10-29T09:37:36.428Z,7.00
2023-10-29T09:40:04.256Z,6.70
2023-10-29T09:42:35.600Z,6.85
2023-10-29T09:45:05.151Z,7.05
2023-10-29T09:47:32.885Z,5.95
2023-10-29T09:49:59.929Z,6.53
2023-10-29T09:52:33.739Z,6.00
2023-10-29T09:55:02.357Z,5.50
2023-10-29T09:57:31.297Z,5.88
2023-10-29T10:00:00.389Z,6.20
2023-10-29T10:02:30.313Z,6.53
2023-10-29T10:04:58.169Z,6.85
2023-10-29T10:07:26.482Z,7.43
2023-10-29T10:09:56.996Z,6.22
2023-10-29T10:12:25.649Z,6.32
2023-10-29T10:14:53.782Z,6.60
2023-10-29T10:17:20.856Z,7.38
2023-10-29T10:19:47.759Z,7.38
2023-10-29T11:40:30.862Z,6.53
2023-10-29T11:43:14.428Z,6.72
2023-10-29T11:45:42.046Z,6.57
2023-10-29T11:48:12.856Z,6.60
2023-10-29T11:50:41.227Z,6.68
2023-10-29T11:53:22.516Z,6.72
2023-10-29T11:55:53.129Z,7.22
2023-10-29T11:58:21.510Z,7.13
2023-10-29T12:00:51.112Z,6.60
2023-10-29T12:03:22.201Z,6.85
2023-10-29T12:05:56.553Z,7.78
2023-10-29T12:08:27.433Z,7.28
2023-10-29T12:10:56.761Z,7.38
2023-10-29T12:13:24.139Z,6.88
2023-10-29T12:16:03.860Z,6.45
2023-10-29T12:18:31.134Z,7.47
2023-10-29T12:21:05.918Z,7.93
2023-10-29T12:23:33.990Z,7.97
2023-10-29T12:26:10.868Z,8.48
2023-10-29T12:28:39.012Z,7.75
2023-10-29T12:31:08.641Z,9.05
2023-10-29T12:33:37.819Z,8.30
2023-10-29T12:36:14.821Z,8.32
2023-10-29T12:38:42.857Z,9.15
2023-10-29T12:41:14.237Z,8.52
2023-10-29T12:43:44.226Z,8.93
2023-10-29T12:46:12.610Z,8.00
2023-10-29T12:49:10.863Z,8.55
2023-10-29T12:51:42.710Z,8.40
2023-10-29T12:54:17.858Z,8.50
2023-10-29T12:57:02.750Z,7.93
2023-10-29T12:59:33.422Z,8.48
2023-10-29T13:02:07.613Z,8.02
2023-10-29T13:04:40.214Z,8.32
2023-10-29T13:07:10.157Z,8.93
2023-10-29T13:09:41.814Z,8.73
2023-10-29T13:12:10.686Z,9.23
2023-10-29T13:14:38.261Z,9.13
2023-10-29T13:17:06.027Z,8.27
2023-10-29T13:19:33.201Z,8.23
2023-10-29T13:22:00.495Z,9.05
2023-10-29T13:24:27.528Z,8.82
2023-10-29T13:26:54.556Z,8.48
2023-10-29T13:29:22.137Z,8.98
2023-10-29T13:31:49.304Z,7.68
2023-10-29T13:34:17.265Z,7.55
2023-10-29T13:36:44.405Z,8.23
2023-10-29T13:39:11.572Z,7.85
2023-10-29T13:41:39.655Z,7.55
2023-10-29T13:44:07.470Z,7.57
2023-10-29T13:46:35.002Z,7.15
2023-10-29T13:49:03.805Z,7.75
2023-10-29T13:51:31.072Z,7.97
2023-10-29T13:53:58.211Z,7.55
2023-10-29T13:56:25.295Z,8.63
2023-10-29T13:58:52.350Z,8.52
2023-10-29T14:01:20.496Z,8.80
2023-10-29T14:03:49.893Z,9.35
2023-10-29T14:06:18.151Z,9.20
2023-10-29T14:08:46.042Z,8.93
2023-10-29T14:11:15.872Z,9.40
2023-10-29T14:13:45.725Z,10.45
2023-10-29T14:16:13.785Z,9.95
2023-10-29T14:18:42.137Z,10.43
2023-10-29T14:21:09.154Z,11.05
2023-10-29T14:23:36.413Z,11.90
2023-10-29T14:26:03.436Z,11.77
2023-10-29T14:28:30.366Z,11.90
2023-10-29T14:30:57.662Z,13.38
2023-10-29T14:33:24.949Z,13.05
2023-10-29T14:35:59.032Z,14.15
2023-10-29T14:38:27.376Z,10.95
2023-10-29T14:40:56.969Z,10.75
2023-10-29T14:43:24.323Z,10.95
2023-10-29T14:45:53.968Z,9.90
2023-10-29T14:48:21.423Z,8.30
2023-10-29T14:50:49.452Z,8.70
2023-10-29T14:53:16.702Z,8.80
2023-10-29T14:55:47.810Z,8.95
2023-10-29T15:00:45.119Z,8.10
2023-10-29T15:03:13.225Z,7.93
2023-10-29T15:05:40.830Z,8.88
2023-10-29T15:08:07.982Z,8.85
2023-10-29T15:10:35.378Z,8.75
2023-10-29T15:13:02.429Z,8.75
2023-10-29T15:15:30.611Z,7.90
2023-10-29T15:17:58.703Z,7.78
2023-10-29T15:20:28.158Z,7.43
2023-10-29T15:22:56.432Z,7.05
2023-10-29T15:25:24.449Z,7.10
2023-10-29T15:27:53.935Z,6.65
2023-10-29T15:30:20.948Z,6.97
2023-10-29T15:32:48.080Z,6.63
2023-10-29T15:35:15.285Z,6.68
2023-10-29T15:37:44.158Z,6.80
2023-10-29T15:40:11.444Z,6.43
2023-10-29T15:42:38.875Z,6.10
2023-10-29T15:45:06.601Z,5.97
2023-10-29T15:47:34.074Z,6.38
2023-10-29T15:50:01.887Z,6.35
2023-10-29T15:52:28.831Z,6.10
2023-10-29T15:54:55.855Z,6.32
2023-10-29T15:57:24.395Z,5.82
2023-10-29T15:59:51.782Z,5.88
2023-10-29T16:02:18.740Z,6.10
2023-10-29T16:04:45.976Z,5.82
2023-10-29T16:07:13.037Z,5.25
2023-10-29T16:09:40.011Z,5.32
2023-10-29T16:12:09.498Z,5.25
2023-10-29T16:14:37.829Z,5.05
2023-10-29T16:17:06.238Z,5.40
2023-10-29T16:19:33.237Z,4.40
2023-10-29T16:22:00.313Z,5.22
2023-10-29T16:24:29.543Z,4.97
2023-10-29T16:26:58.226Z,5.10
2023-10-29T16:29:25.620Z,5.28
2023-10-29T16:31:52.737Z,4.82
2023-10-29T16:34:20.427Z,5.07
2023-10-29T16:36:47.846Z,5.43
2023-10-29T16:39:14.811Z,5.65
2023-10-29T16:41:42.069Z,5.28
2023-10-29T16:44:09.044Z,5.55
2023-10-29T16:46:36.179Z,5.63
2023-10-29T16:49:03.487Z,5.50
2023-10-29T16:51:31.019Z,6.13
2023-10-29T16:53:58.245Z,6.22
2023-10-29T16:56:25.266Z,7.20
2023-10-29T16:58:52.181Z,5.88
2023-10-29T17:01:19.436Z,6.10
2023-10-29T17:03:47.082Z,5.47
2023-10-29T17:06:15.829Z,5.80
2023-10-29T17:08:43.116Z,5.88
2023-10-29T17:11:10.298Z,5.53
2023-10-29T17:13:42.715Z,6.10
2023-10-29T17:16:10.117Z,6.15
2023-10-29T17:18:38.466Z,6.03
2023-10-29T17:21:13.934Z,5.40
2023-10-29T17:23:41.145Z,5.72
2023-10-29T17:26:19.220Z,5.53
2023-10-29T17:28:49.435Z,5.80
2023-10-29T17:31:18.758Z,5.22
2023-10-29T17:33:46.982Z,5.47
2023-10-29T17:36:16.389Z,4.82
2023-10-29T17:38:45.318Z,5.07
2023-10-29T17:41:16.060Z,5.50
2023-10-29T17:43:47.238Z,4.88
2023-10-29T17:46:15.654Z,5.35
2023-10-29T17:48:44.558Z,4.75
2023-10-29T17:51:11.658Z,5.47
2023-10-29T17:53:39.524Z,4.72
2023-10-29T17:56:06.832Z,4.97
2023-10-29T17:58:34.614Z,5.28
2023-10-29T18:01:02.581Z,5.82
2023-10-29T18:03:29.810Z,5.78
2023-10-29T18:05:56.979Z,5.38
2023-10-29T18:08:25.160Z,4.85
2023-10-29T18:10:54.957Z,4.60
2023-10-29T18:13:22.222Z,4.50
2023-10-29T18:15:56.634Z,4.28
2023-10-29T18:18:35.753Z,4.53
2023-10-29T18:21:11.596Z,4.88
2023-10-29T18:23:38.758Z,4.80
2023-10-29T18:26:05.674Z,5.35
2023-10-29T18:28:32.749Z,5.68
2023-10-29T18:31:09.172Z,5.93
2023-10-29T18:33:36.444Z,5.93
2023-10-29T18:36:10.600Z,5.00
2023-10-29T18:38:38.522Z,6.03
2023-10-29T18:41:14.775Z,6.20
2023-10-29T18:43:41.728Z,6.50
2023-10-29T18:46:12.260Z,7.63
2023-10-29T18:48:39.511Z,7.63
2023-10-29T18:51:06.598Z,7.05
2023-10-29T18:53:33.624Z,8.05
2023-10-29T18:56:00.531Z,8.77
2023-10-29T18:58:28.135Z,8.73
2023-10-29T19:00:55.104Z,9.00
2023-10-29T19:03:23.927Z,9.35
2023-10-29T19:05:51.817Z,9.50
2023-10-29T19:08:18.984Z,10.57
2023-10-29T19:10:48.494Z,10.43
2023-10-29T19:13:16.148Z,10.82
2023-10-29T19:15:43.068Z,11.05
2023-10-29T19:18:10.701Z,10.25
2023-10-29T19:20:41.560Z,10.35
2023-10-29T19:23:08.443Z,10.57
2023-10-29T19:25:36.735Z,9.88
2023-10-29T19:28:03.818Z,10.30
2023-10-29T19:30:30.791Z,9.50
2023-10-29T19:32:57.796Z,9.07
2023-10-29T19:35:24.763Z,9.43
2023-10-29T19:37:51.644Z,9.07
2023-10-29T19:40:18.610Z,9.25
2023-10-29T19:42:45.772Z,8.52
2023-10-29T19:45:12.719Z,8.32
2023-10-29T19:47:40.283Z,8.13
2023-10-29T19:50:08.443Z,8.10
2023-10-29T19:52:35.373Z,7.88
2023-10-29T19:55:04.357Z,6.88
2023-10-29T19:57:32.073Z,6.95
2023-10-29T19:59:59.054Z,6.35
2023-10-29T20:02:26.423Z,6.57
2023-10-29T20:04:53.852Z,7.10
2023-10-29T20:07:20.811Z,6.57
2023-10-29T20:09:49.382Z,6.82
2023-10-29T20:12:16.608Z,6.90
2023-10-29T20:14:43.997Z,6.40
2023-10-29T20:17:10.912Z,6.57
2023-10-29T20:19:39.065Z,5.68
2023-10-29T20:22:06.177Z,6.38
2023-10-29T20:24:33.376Z,6.65
2023-10-29T20:27:00.627Z,6.30
2023-10-29T20:29:27.571Z,6.43
2023-10-29T20:31:54.640Z,6.57
2023-10-29T20:34:24.062Z,6.13
2023-10-29T20:36:51.098Z,6.22
2023-10-29T20:39:18.331Z,6.30
2023-10-29T20:41:45.339Z,6.20
2023-10-29T20:44:14.000Z,5.20
2023-10-29T20:46:41.109Z,5.95
2023-10-29T20:49:08.397Z,5.18
2023-10-29T20:51:35.403Z,5.68
2023-10-29T20:54:02.365Z,5.60
2023-10-29T20:56:30.655Z,5.28
2023-10-29T20:58:57.535Z,6.20
2023-10-29T21:01:24.565Z,5.20
2023-10-29T21:03:51.767Z,5.43
2023-10-29T21:06:18.805Z,5.72
2023-10-29T21:08:45.787Z,5.30
2023-10-29T21:11:17.175Z,5.82
2023-10-29T21:13:44.818Z,5.88
2023-10-29T21:16:11.823Z,5.78
2023-10-29T21:18:38.805Z,5.93
2023-10-29T21:21:06.136Z,6.15
2023-10-29T21:23:33.249Z,5.47
2023-10-29T21:26:00.371Z,5.22
2023-10-29T21:28:27.504Z,5.43
2023-10-29T21:30:54.599Z,5.40
2023-10-29T21:33:21.648Z,4.97
2023-10-29T21:35:51.520Z,5.53
2023-10-29T21:38:18.816Z,5.47
2023-10-29T21:40:45.770Z,5.55
2023-10-29T21:43:13.175Z,5.28
2023-10-29T21:45:43.108Z,5.03
2023-10-29T21:48:11.414Z,5.13
2023-10-29T21:50:41.955Z,5.32
2023-10-29T21:53:09.349Z,4.97
2023-10-29T21:55:39.447Z,5.20
2023-10-29T21:58:10.136Z,5.30
2023-10-29T22:00:37.504Z,5.40
2023-10-29T22:03:05.952Z,4.80
2023-10-29T22:05:33.226Z,5.43
2023-10-29T22:08:00.261Z,5.03
2023-10-29T22:10:27.240Z,5.20
2023-10-29T22:12:54.641Z,5.38
2023-10-29T22:15:21.734Z,5.45
2023-10-29T22:17:48.723Z,5.05
2023-10-29T22:20:15.997Z,5.18
2023-10-29T22:22:43.047Z,5.40
2023-10-29T22:25:10.148Z,4.38
2023-10-29T22:27:37.219Z,4.68
2023-10-29T22:30:06.473Z,4.30
2023-10-29T22:32:35.048Z,4.38
2023-10-29T22:35:02.065Z,4.47
2023-10-29T22:37:29.021Z,5.05
2023-10-29T22:39:55.978Z,4.70
2023-10-29T22:42:23.775Z,4.85
2023-10-29T22:44:50.824Z,5.28
2023-10-29T22:47:17.776Z,5.55
2023-10-29T22:49:44.765Z,4.97
2023-10-29T22:52:11.718Z,5.10
2023-10-29T22:54:38.710Z,5.03
2023-10-29T22:57:05.794Z,5.25
2023-10-29T22:59:32.868Z,5.65
2023-10-29T23:01:59.821Z,5.15
2023-10-29T23:04:26.854Z,5.15
2023-10-29T23:06:53.870Z,5.13
2023-10-29T23:09:21.746Z,5.90
2023-10-29T23:11:48.733Z,5.88
2023-10-29T23:14:15.684Z,5.60
2023-10-29T23:16:42.711Z,5.25
2023-10-29T23:19:09.641Z,5.57
2023-10-29T23:21:36.608Z,6.03
2023-10-29T23:24:03.665Z,6.00
2023-10-29T23:26:31.022Z,6.10
2023-10-29T23:28:58.232Z,6.00
2023-10-29T23:31:25.213Z,6.53
2023-10-29T23:33:52.176Z,5.68
2023-10-29T23:36:19.964Z,5.68
2023-10-29T23:38:46.988Z,6.28
2023-10-29T23:41:13.915Z,6.40
2023-10-29T23:43:40.864Z,6.38
2023-10-29T23:46:07.897Z,6.38
2023-10-29T23:48:36.207Z,6.40
2023-10-29T23:51:03.354Z,5.97
2023-10-29T23:53:30.296Z,6.15
2023-10-29T23:55:57.467Z,6.32
2023-10-29T23:58:24.463Z,6.40
